Terminal Aerodrome Forecast
Issued by NWS

Home | Current Version | Previous Version | Text Only | Print | Product List | Glossary On
Versions: 1 2 3 4 5 6 7 8 9 10 11 12 13 14 15 16 17 18
000
FTUS45 KFGZ 290529
TAFGCN
TAF
KGCN 290529Z 2906/3006 VRB05KT P6SM FEW080
     FM291600 02014G21KT P6SM SCT080
      TEMPO 2921/2924 BKN080
     FM300100 04005KT P6SM SKC=

USA.gov is the U.S. government's official web portal to all federal, state and local government web resources and services.